Aviation Digital Data Service (ADDS)

Output produced by METARs form (0054 UTC 14 May 2021)
found at http://aviationweather.gov/metar/data/
 
METAR text: EPRZ 140030Z 20009KT 9999 BKN028 14/10 Q1000
Conditions at: EPRZ (RZESZOW/JASIONKA, PL) observed 0030 UTC 14 May 2021
Temperature: 14.0°C (57°F)
Dewpoint: 10.0°C (50°F) [RH = 77%]
Pressure (altimeter): 29.53 inches Hg (1000.0 mb)
Winds: from the SSW (200 degrees) at 10 MPH (9 knots; 4.6 m/s)
Visibility: 6 or more miles (10+ km)
Ceiling: 2800 feet AGL
Clouds: broken clouds at 2800 feet AGL
Weather: no significant weather observed at this time

METAR text: EPRZ 140000Z 20009KT 9999 BKN024 14/10 Q1000
Conditions at: EPRZ (RZESZOW/JASIONKA, PL) observed 0000 UTC 14 May 2021
Temperature: 14.0°C (57°F)
Dewpoint: 10.0°C (50°F) [RH = 77%]
Pressure (altimeter): 29.53 inches Hg (1000.0 mb)
Winds: from the SSW (200 degrees) at 10 MPH (9 knots; 4.6 m/s)
Visibility: 6 or more miles (10+ km)
Ceiling: 2400 feet AGL
Clouds: broken clouds at 2400 feet AGL
Weather: no significant weather observed at this time

Forecast for: EPRZ (RZESZOW/JASIONKA, PL)
Text: TAF EPRZ 132330Z 1400/1424 19010KT 9999 BKN025
Forecast period: 0000 to 1800 UTC 14 May 2021
Forecast type: FROM: standard forecast or significant change
Winds: from the S (190 degrees) at 12 MPH (10 knots; 5.1 m/s)
Visibility: 6 or more miles (10+ km)
Ceiling: 2500 feet AGL
Clouds: broken clouds at 2500 feet AGL
Weather: no significant weather forecast for this period
Text: TEMPO 1412/1424 BKN025CB
Forecast period: 1200 UTC 14 May 2021 to 0000 UTC 15 May 2021
Forecast type: TEMPORARY: The following changes expected for less than half the time period
Visibility: missing
Ceiling: 2500 feet AGL
Clouds: broken clouds at 2500 feet AGL
Weather: no significant weather forecast for this period
Text: PROB30
Forecast period: 1400 to 2100 UTC 14 May 2021
Forecast type: TEMPORARY: The following changes expected for less than half the time period
Visibility: 2.49 miles (4.01 km)
Ceiling: 900 feet AGL
Clouds: broken clouds at 900 feet AGL
broken clouds at 1400 feet AGL
Weather: TSRA  (rain associated with thunderstorm(s))
Text: TEMPO 1414/1421 4000 TSRA BKN009 BKN014CB
Forecast period: 1800 UTC 14 May 2021 to 0000 UTC 15 May 2021
Forecast type: BECOMING: Conditions expected to become as follows by 2100 UTC 14 May 2021
Winds: from the W (270 degrees) at 12 MPH (10 knots; 5.1 m/s)
Visibility: 6 or more miles (10+ km)
Ceiling: 2500 feet AGL
Clouds: broken clouds at 2500 feet AGL
Weather: no significant weather forecast for this period